sensor_id;sensor_type;location;lat;lon;timestamp;temperature;humidity
48806;DHT22;34625;47.176;27.548;2022-09-02T00:01:54;27.50;49.30
48806;DHT22;34625;47.176;27.548;2022-09-02T00:04:23;27.40;49.40
48806;DHT22;34625;47.176;27.548;2022-09-02T00:06:51;27.50;49.40
48806;DHT22;34625;47.176;27.548;2022-09-02T00:09:19;27.60;49.40
48806;DHT22;34625;47.176;27.548;2022-09-02T00:11:47;27.40;49.50
48806;DHT22;34625;47.176;27.548;2022-09-02T00:14:18;27.60;49.50
48806;DHT22;34625;47.176;27.548;2022-09-02T00:16:45;27.30;49.50
48806;DHT22;34625;47.176;27.548;2022-09-02T00:19:21;27.40;49.60
48806;DHT22;34625;47.176;27.548;2022-09-02T00:21:48;27.60;49.70
48806;DHT22;34625;47.176;27.548;2022-09-02T00:24:14;27.40;49.70
48806;DHT22;34625;47.176;27.548;2022-09-02T00:26:40;27.40;49.70
48806;DHT22;34625;47.176;27.548;2022-09-02T00:29:06;27.30;49.70
48806;DHT22;34625;47.176;27.548;2022-09-02T00:31:32;27.50;49.80
48806;DHT22;34625;47.176;27.548;2022-09-02T00:33:58;27.60;49.80
48806;DHT22;34625;47.176;27.548;2022-09-02T00:36:25;27.50;49.70
48806;DHT22;34625;47.176;27.548;2022-09-02T00:38:51;27.60;49.70
48806;DHT22;34625;47.176;27.548;2022-09-02T00:41:24;27.40;49.70
48806;DHT22;34625;47.176;27.548;2022-09-02T00:43:57;27.40;49.70
48806;DHT22;34625;47.176;27.548;2022-09-02T00:46:26;27.50;49.70
48806;DHT22;34625;47.176;27.548;2022-09-02T00:49:09;27.50;49.60
48806;DHT22;34625;47.176;27.548;2022-09-02T00:51:42;27.50;49.70
48806;DHT22;34625;47.176;27.548;2022-09-02T00:54:10;27.50;49.70
48806;DHT22;34625;47.176;27.548;2022-09-02T00:56:39;27.40;49.80
48806;DHT22;34625;47.176;27.548;2022-09-02T00:59:07;27.50;49.80
48806;DHT22;34625;47.176;27.548;2022-09-02T01:01:33;27.50;49.90
48806;DHT22;34625;47.176;27.548;2022-09-02T01:03:59;27.50;50.00
48806;DHT22;34625;47.176;27.548;2022-09-02T01:06:27;27.30;50.10
48806;DHT22;34625;47.176;27.548;2022-09-02T01:09:03;27.40;50.20
48806;DHT22;34625;47.176;27.548;2022-09-02T01:11:39;27.40;50.20
48806;DHT22;34625;47.176;27.548;2022-09-02T01:14:06;27.40;50.20
48806;DHT22;34625;47.176;27.548;2022-09-02T01:16:49;27.30;50.30
48806;DHT22;34625;47.176;27.548;2022-09-02T01:21:51;27.50;50.40
48806;DHT22;34625;47.176;27.548;2022-09-02T01:24:19;27.40;50.50
48806;DHT22;34625;47.176;27.548;2022-09-02T01:26:46;27.50;50.60
48806;DHT22;34625;47.176;27.548;2022-09-02T01:29:12;27.50;50.70
48806;DHT22;34625;47.176;27.548;2022-09-02T01:31:38;27.40;50.60
48806;DHT22;34625;47.176;27.548;2022-09-02T01:34:05;27.30;50.60
48806;DHT22;34625;47.176;27.548;2022-09-02T01:36:34;27.50;50.60
48806;DHT22;34625;47.176;27.548;2022-09-02T01:39:02;27.50;50.70
48806;DHT22;34625;47.176;27.548;2022-09-02T01:41:28;27.30;50.70
48806;DHT22;34625;47.176;27.548;2022-09-02T01:43:55;27.30;50.70
48806;DHT22;34625;47.176;27.548;2022-09-02T01:46:21;27.50;50.70
48806;DHT22;34625;47.176;27.548;2022-09-02T01:48:49;27.30;50.80
48806;DHT22;34625;47.176;27.548;2022-09-02T01:51:19;27.20;50.80
48806;DHT22;34625;47.176;27.548;2022-09-02T01:53:47;27.30;50.80
48806;DHT22;34625;47.176;27.548;2022-09-02T01:56:14;27.40;50.90
48806;DHT22;34625;47.176;27.548;2022-09-02T01:58:41;27.20;50.90
48806;DHT22;34625;47.176;27.548;2022-09-02T02:01:07;27.20;51.10
48806;DHT22;34625;47.176;27.548;2022-09-02T02:03:35;27.20;51.30
48806;DHT22;34625;47.176;27.548;2022-09-02T02:06:07;27.20;51.30
48806;DHT22;34625;47.176;27.548;2022-09-02T02:08:36;27.20;51.30
48806;DHT22;34625;47.176;27.548;2022-09-02T02:11:04;27.10;51.40
48806;DHT22;34625;47.176;27.548;2022-09-02T02:13:30;27.30;51.40
48806;DHT22;34625;47.176;27.548;2022-09-02T02:15:57;27.20;51.40
48806;DHT22;34625;47.176;27.548;2022-09-02T02:18:23;27.20;51.50
48806;DHT22;34625;47.176;27.548;2022-09-02T02:20:49;27.20;51.50
48806;DHT22;34625;47.176;27.548;2022-09-02T02:23:15;27.20;51.60
48806;DHT22;34625;47.176;27.548;2022-09-02T02:25:42;27.30;51.40
48806;DHT22;34625;47.176;27.548;2022-09-02T02:28:09;27.40;51.40
48806;DHT22;34625;47.176;27.548;2022-09-02T02:30:36;27.20;51.40
48806;DHT22;34625;47.176;27.548;2022-09-02T02:33:04;27.20;51.50
48806;DHT22;34625;47.176;27.548;2022-09-02T02:35:31;27.30;51.50
48806;DHT22;34625;47.176;27.548;2022-09-02T02:37:57;27.20;51.60
48806;DHT22;34625;47.176;27.548;2022-09-02T02:40:24;27.20;51.70
48806;DHT22;34625;47.176;27.548;2022-09-02T02:42:51;27.30;51.70
48806;DHT22;34625;47.176;27.548;2022-09-02T02:45:23;27.20;51.70
48806;DHT22;34625;47.176;27.548;2022-09-02T02:47:50;27.20;51.70
48806;DHT22;34625;47.176;27.548;2022-09-02T02:50:20;27.10;51.50
48806;DHT22;34625;47.176;27.548;2022-09-02T02:52:47;27.20;51.60
48806;DHT22;34625;47.176;27.548;2022-09-02T02:55:15;27.10;51.60
48806;DHT22;34625;47.176;27.548;2022-09-02T02:57:42;27.10;51.70
48806;DHT22;34625;47.176;27.548;2022-09-02T03:02:37;27.00;52.20
48806;DHT22;34625;47.176;27.548;2022-09-02T03:05:06;27.00;52.20
48806;DHT22;34625;47.176;27.548;2022-09-02T03:07:34;27.00;52.20
48806;DHT22;34625;47.176;27.548;2022-09-02T03:10:00;27.20;52.30
48806;DHT22;34625;47.176;27.548;2022-09-02T03:12:29;27.20;52.10
48806;DHT22;34625;47.176;27.548;2022-09-02T03:14:58;27.20;51.80
48806;DHT22;34625;47.176;27.548;2022-09-02T03:17:24;27.40;51.50
48806;DHT22;34625;47.176;27.548;2022-09-02T03:19:51;27.40;51.20
48806;DHT22;34625;47.176;27.548;2022-09-02T03:22:19;27.40;50.90
48806;DHT22;34625;47.176;27.548;2022-09-02T03:24:45;27.60;50.70
48806;DHT22;34625;47.176;27.548;2022-09-02T03:27:11;27.40;51.80
48806;DHT22;34625;47.176;27.548;2022-09-02T03:29:38;27.70;53.30
48806;DHT22;34625;47.176;27.548;2022-09-02T03:32:04;27.80;55.10
48806;DHT22;34625;47.176;27.548;2022-09-02T03:34:31;27.90;55.90
48806;DHT22;34625;47.176;27.548;2022-09-02T03:36:58;28.00;54.70
48806;DHT22;34625;47.176;27.548;2022-09-02T03:39:24;28.10;51.80
48806;DHT22;34625;47.176;27.548;2022-09-02T03:41:50;27.90;50.50
48806;DHT22;34625;47.176;27.548;2022-09-02T03:44:19;28.00;50.90
48806;DHT22;34625;47.176;27.548;2022-09-02T03:46:45;27.60;50.60
48806;DHT22;34625;47.176;27.548;2022-09-02T03:49:12;27.90;50.60
48806;DHT22;34625;47.176;27.548;2022-09-02T03:51:41;27.80;50.30
48806;DHT22;34625;47.176;27.548;2022-09-02T03:54:09;27.70;50.10
48806;DHT22;34625;47.176;27.548;2022-09-02T03:56:36;27.80;50.00
48806;DHT22;34625;47.176;27.548;2022-09-02T03:59:03;27.90;50.00
48806;DHT22;34625;47.176;27.548;2022-09-02T04:01:30;27.80;49.90
48806;DHT22;34625;47.176;27.548;2022-09-02T04:03:56;27.70;49.80
48806;DHT22;34625;47.176;27.548;2022-09-02T04:06:23;27.80;49.80
48806;DHT22;34625;47.176;27.548;2022-09-02T04:08:51;27.80;49.90
48806;DHT22;34625;47.176;27.548;2022-09-02T04:11:19;27.90;49.60
48806;DHT22;34625;47.176;27.548;2022-09-02T04:13:50;27.80;49.40
48806;DHT22;34625;47.176;27.548;2022-09-02T04:16:22;27.80;49.50
48806;DHT22;34625;47.176;27.548;2022-09-02T04:18:58;27.80;49.60
48806;DHT22;34625;47.176;27.548;2022-09-02T04:21:28;27.70;49.70
48806;DHT22;34625;47.176;27.548;2022-09-02T04:23:56;27.80;49.80
48806;DHT22;34625;47.176;27.548;2022-09-02T04:26:22;27.90;49.90
48806;DHT22;34625;47.176;27.548;2022-09-02T04:28:52;27.80;49.90
48806;DHT22;34625;47.176;27.548;2022-09-02T04:31:21;27.70;50.00
48806;DHT22;34625;47.176;27.548;2022-09-02T04:33:51;27.90;53.60
48806;DHT22;34625;47.176;27.548;2022-09-02T04:36:18;28.10;55.20
48806;DHT22;34625;47.176;27.548;2022-09-02T04:38:45;28.40;57.60
48806;DHT22;34625;47.176;27.548;2022-09-02T04:41:24;28.60;62.90
48806;DHT22;34625;47.176;27.548;2022-09-02T04:43:55;28.90;58.50
48806;DHT22;34625;47.176;27.548;2022-09-02T04:46:24;28.90;61.50
48806;DHT22;34625;47.176;27.548;2022-09-02T04:48:51;29.10;60.30
48806;DHT22;34625;47.176;27.548;2022-09-02T04:51:20;29.10;61.10
48806;DHT22;34625;47.176;27.548;2022-09-02T04:53:49;29.10;62.00
48806;DHT22;34625;47.176;27.548;2022-09-02T04:56:21;29.10;61.80
48806;DHT22;34625;47.176;27.548;2022-09-02T04:58:48;29.10;60.30
48806;DHT22;34625;47.176;27.548;2022-09-02T05:01:25;29.10;60.10
48806;DHT22;34625;47.176;27.548;2022-09-02T05:03:54;29.30;59.20
48806;DHT22;34625;47.176;27.548;2022-09-02T05:06:25;29.80;58.80
48806;DHT22;34625;47.176;27.548;2022-09-02T05:08:55;30.40;58.30
48806;DHT22;34625;47.176;27.548;2022-09-02T05:11:25;30.90;57.30
48806;DHT22;34625;47.176;27.548;2022-09-02T05:13:56;31.20;54.60
48806;DHT22;34625;47.176;27.548;2022-09-02T05:16:29;31.50;52.60
48806;DHT22;34625;47.176;27.548;2022-09-02T05:18:56;31.40;53.50
48806;DHT22;34625;47.176;27.548;2022-09-02T05:21:25;31.60;55.40
48806;DHT22;34625;47.176;27.548;2022-09-02T05:23:52;31.60;54.30
48806;DHT22;34625;47.176;27.548;2022-09-02T05:26:20;31.50;51.80
48806;DHT22;34625;47.176;27.548;2022-09-02T05:28:47;31.40;53.00
48806;DHT22;34625;47.176;27.548;2022-09-02T05:31:16;31.50;51.60
48806;DHT22;34625;47.176;27.548;2022-09-02T05:33:43;31.50;53.40
48806;DHT22;34625;47.176;27.548;2022-09-02T05:36:16;31.70;55.60
48806;DHT22;34625;47.176;27.548;2022-09-02T05:38:42;32.10;68.80
48806;DHT22;34625;47.176;27.548;2022-09-02T05:41:14;32.30;55.60
48806;DHT22;34625;47.176;27.548;2022-09-02T05:43:43;32.10;58.10
48806;DHT22;34625;47.176;27.548;2022-09-02T05:46:12;32.00;55.40
48806;DHT22;34625;47.176;27.548;2022-09-02T05:48:44;31.90;54.60
48806;DHT22;34625;47.176;27.548;2022-09-02T05:51:30;32.10;51.70
48806;DHT22;34625;47.176;27.548;2022-09-02T05:53:58;32.00;49.10
48806;DHT22;34625;47.176;27.548;2022-09-02T05:56:25;31.90;49.60
48806;DHT22;34625;47.176;27.548;2022-09-02T05:58:55;31.80;47.70
48806;DHT22;34625;47.176;27.548;2022-09-02T06:01:22;31.80;48.90
48806;DHT22;34625;47.176;27.548;2022-09-02T06:03:48;31.80;49.50
48806;DHT22;34625;47.176;27.548;2022-09-02T06:06:16;31.80;49.80
48806;DHT22;34625;47.176;27.548;2022-09-02T06:08:43;31.70;51.50
48806;DHT22;34625;47.176;27.548;2022-09-02T06:11:11;31.60;50.10
48806;DHT22;34625;47.176;27.548;2022-09-02T06:13:40;31.30;48.20
48806;DHT22;34625;47.176;27.548;2022-09-02T06:16:07;31.30;50.00
48806;DHT22;34625;47.176;27.548;2022-09-02T06:18:40;31.20;47.70
48806;DHT22;34625;47.176;27.548;2022-09-02T06:21:06;31.10;47.70
48806;DHT22;34625;47.176;27.548;2022-09-02T06:23:38;31.00;48.40
48806;DHT22;34625;47.176;27.548;2022-09-02T06:26:07;31.00;48.10
48806;DHT22;34625;47.176;27.548;2022-09-02T06:28:34;31.00;48.40
48806;DHT22;34625;47.176;27.548;2022-09-02T06:31:15;30.90;48.20
48806;DHT22;34625;47.176;27.548;2022-09-02T06:33:43;30.70;49.00
48806;DHT22;34625;47.176;27.548;2022-09-02T06:36:15;30.70;49.30
48806;DHT22;34625;47.176;27.548;2022-09-02T06:38:45;30.70;55.00
48806;DHT22;34625;47.176;27.548;2022-09-02T06:41:14;30.70;49.50
48806;DHT22;34625;47.176;27.548;2022-09-02T06:43:43;30.60;49.00
48806;DHT22;34625;47.176;27.548;2022-09-02T06:46:27;30.50;49.30
48806;DHT22;34625;47.176;27.548;2022-09-02T06:48:56;30.40;50.10
48806;DHT22;34625;47.176;27.548;2022-09-02T06:51:36;30.30;51.50
48806;DHT22;34625;47.176;27.548;2022-09-02T06:54:06;30.40;50.60
48806;DHT22;34625;47.176;27.548;2022-09-02T06:56:35;30.40;56.80
48806;DHT22;34625;47.176;27.548;2022-09-02T06:59:02;30.40;51.40
48806;DHT22;34625;47.176;27.548;2022-09-02T07:01:42;30.40;49.70
48806;DHT22;34625;47.176;27.548;2022-09-02T07:04:09;30.30;51.40
48806;DHT22;34625;47.176;27.548;2022-09-02T07:06:54;30.20;52.30
48806;DHT22;34625;47.176;27.548;2022-09-02T07:09:27;30.20;52.10
48806;DHT22;34625;47.176;27.548;2022-09-02T07:12:01;30.30;51.60
48806;DHT22;34625;47.176;27.548;2022-09-02T07:14:29;30.30;51.80
48806;DHT22;34625;47.176;27.548;2022-09-02T07:16:56;30.10;50.60
48806;DHT22;34625;47.176;27.548;2022-09-02T07:19:29;30.10;49.50
48806;DHT22;34625;47.176;27.548;2022-09-02T07:21:56;30.10;48.50
48806;DHT22;34625;47.176;27.548;2022-09-02T07:24:23;30.10;48.90
48806;DHT22;34625;47.176;27.548;2022-09-02T07:26:50;29.90;48.80
48806;DHT22;34625;47.176;27.548;2022-09-02T07:29:18;29.90;50.30
48806;DHT22;34625;47.176;27.548;2022-09-02T07:31:47;29.90;48.40
48806;DHT22;34625;47.176;27.548;2022-09-02T07:34:17;29.90;48.00
48806;DHT22;34625;47.176;27.548;2022-09-02T07:36:46;29.80;52.80
48806;DHT22;34625;47.176;27.548;2022-09-02T07:39:17;29.90;49.40
48806;DHT22;34625;47.176;27.548;2022-09-02T07:41:46;29.80;47.40
48806;DHT22;34625;47.176;27.548;2022-09-02T07:44:15;29.80;47.50
48806;DHT22;34625;47.176;27.548;2022-09-02T07:46:42;29.70;47.10
48806;DHT22;34625;47.176;27.548;2022-09-02T07:49:29;29.80;46.80
48806;DHT22;34625;47.176;27.548;2022-09-02T07:51:55;29.60;47.30
48806;DHT22;34625;47.176;27.548;2022-09-02T07:54:24;29.60;46.60
48806;DHT22;34625;47.176;27.548;2022-09-02T07:56:53;29.80;46.90
48806;DHT22;34625;47.176;27.548;2022-09-02T07:59:20;29.80;47.10
48806;DHT22;34625;47.176;27.548;2022-09-02T08:01:48;29.60;47.50
48806;DHT22;34625;47.176;27.548;2022-09-02T08:04:18;29.60;47.70
48806;DHT22;34625;47.176;27.548;2022-09-02T08:06:45;29.50;48.00
48806;DHT22;34625;47.176;27.548;2022-09-02T08:09:12;29.50;48.10
48806;DHT22;34625;47.176;27.548;2022-09-02T08:11:40;29.50;48.30
48806;DHT22;34625;47.176;27.548;2022-09-02T08:14:09;29.40;48.10
48806;DHT22;34625;47.176;27.548;2022-09-02T08:16:37;29.60;48.40
48806;DHT22;34625;47.176;27.548;2022-09-02T08:19:04;29.50;48.30
48806;DHT22;34625;47.176;27.548;2022-09-02T08:21:31;29.50;47.40
48806;DHT22;34625;47.176;27.548;2022-09-02T08:23:57;29.30;46.90
48806;DHT22;34625;47.176;27.548;2022-09-02T08:26:23;29.40;46.60
48806;DHT22;34625;47.176;27.548;2022-09-02T08:28:51;29.40;46.90
48806;DHT22;34625;47.176;27.548;2022-09-02T08:31:17;29.30;46.50
48806;DHT22;34625;47.176;27.548;2022-09-02T08:33:43;29.30;46.70
48806;DHT22;34625;47.176;27.548;2022-09-02T08:36:09;29.40;46.30
48806;DHT22;34625;47.176;27.548;2022-09-02T08:38:36;29.30;48.50
48806;DHT22;34625;47.176;27.548;2022-09-02T08:41:16;29.30;50.90
48806;DHT22;34625;47.176;27.548;2022-09-02T08:43:45;29.40;48.00
48806;DHT22;34625;47.176;27.548;2022-09-02T08:46:13;29.20;47.50
48806;DHT22;34625;47.176;27.548;2022-09-02T08:51:32;29.30;47.70
48806;DHT22;34625;47.176;27.548;2022-09-02T08:54:20;29.10;47.40
48806;DHT22;34625;47.176;27.548;2022-09-02T08:56:48;29.30;47.20
48806;DHT22;34625;47.176;27.548;2022-09-02T08:59:21;29.20;46.70
48806;DHT22;34625;47.176;27.548;2022-09-02T09:04:36;29.30;46.40
48806;DHT22;34625;47.176;27.548;2022-09-02T09:18:19;29.50;43.80
48806;DHT22;34625;47.176;27.548;2022-09-02T09:20:48;29.60;44.30
48806;DHT22;34625;47.176;27.548;2022-09-02T09:23:20;29.50;44.00
48806;DHT22;34625;47.176;27.548;2022-09-02T09:25:51;29.50;44.20
48806;DHT22;34625;47.176;27.548;2022-09-02T09:28:20;29.50;43.40
48806;DHT22;34625;47.176;27.548;2022-09-02T09:30:46;29.40;43.20
48806;DHT22;34625;47.176;27.548;2022-09-02T09:33:15;29.60;43.10
48806;DHT22;34625;47.176;27.548;2022-09-02T09:35:49;29.50;43.80
48806;DHT22;34625;47.176;27.548;2022-09-02T09:38:16;29.40;43.20
48806;DHT22;34625;47.176;27.548;2022-09-02T09:41:15;29.40;43.30
48806;DHT22;34625;47.176;27.548;2022-09-02T09:43:45;29.40;44.00
48806;DHT22;34625;47.176;27.548;2022-09-02T09:46:25;29.60;46.10
48806;DHT22;34625;47.176;27.548;2022-09-02T09:48:52;29.70;50.40
48806;DHT22;34625;47.176;27.548;2022-09-02T09:51:18;29.90;45.40
48806;DHT22;34625;47.176;27.548;2022-09-02T09:53:45;29.80;43.60
48806;DHT22;34625;47.176;27.548;2022-09-02T10:04:06;29.50;42.80
48806;DHT22;34625;47.176;27.548;2022-09-02T10:09:27;29.50;43.70
48806;DHT22;34625;47.176;27.548;2022-09-02T10:11:56;29.50;45.60
48806;DHT22;34625;47.176;27.548;2022-09-02T10:14:24;29.60;45.20
48806;DHT22;34625;47.176;27.548;2022-09-02T10:30:15;29.40;42.80
48806;DHT22;34625;47.176;27.548;2022-09-02T10:44:19;29.30;42.40
48806;DHT22;34625;47.176;27.548;2022-09-02T10:47:16;29.30;42.30
48806;DHT22;34625;47.176;27.548;2022-09-02T10:49:48;29.30;42.20
48806;DHT22;34625;47.176;27.548;2022-09-02T10:58:03;29.20;42.20
48806;DHT22;34625;47.176;27.548;2022-09-02T11:00:33;29.20;42.30
48806;DHT22;34625;47.176;27.548;2022-09-02T11:06:21;29.20;42.20
48806;DHT22;34625;47.176;27.548;2022-09-02T11:08:50;29.20;42.10
48806;DHT22;34625;47.176;27.548;2022-09-02T11:11:24;29.10;41.90
48806;DHT22;34625;47.176;27.548;2022-09-02T11:16:54;29.10;41.80
48806;DHT22;34625;47.176;27.548;2022-09-02T11:19:34;29.10;41.70
48806;DHT22;34625;47.176;27.548;2022-09-02T11:22:23;29.00;41.60
48806;DHT22;34625;47.176;27.548;2022-09-02T11:24:56;29.10;41.70
48806;DHT22;34625;47.176;27.548;2022-09-02T11:27:45;29.10;41.70
48806;DHT22;34625;47.176;27.548;2022-09-02T11:30:19;29.10;41.80
48806;DHT22;34625;47.176;27.548;2022-09-02T11:35:32;29.10;41.60
48806;DHT22;34625;47.176;27.548;2022-09-02T11:38:10;29.20;41.30
48806;DHT22;34625;47.176;27.548;2022-09-02T11:43:46;29.20;40.80
48806;DHT22;34625;47.176;27.548;2022-09-02T11:54:41;29.00;40.00
48806;DHT22;34625;47.176;27.548;2022-09-02T11:57:13;29.10;39.80
48806;DHT22;34625;47.176;27.548;2022-09-02T12:13:33;29.00;39.70
48806;DHT22;34625;47.176;27.548;2022-09-02T12:21:20;29.00;39.90
48806;DHT22;34625;47.176;27.548;2022-09-02T12:29:12;29.00;40.20
48806;DHT22;34625;47.176;27.548;2022-09-02T12:31:54;28.90;39.50
48806;DHT22;34625;47.176;27.548;2022-09-02T12:36:56;29.00;40.80
48806;DHT22;34625;47.176;27.548;2022-09-02T12:44:54;28.80;40.70
48806;DHT22;34625;47.176;27.548;2022-09-02T12:47:27;28.80;40.70
48806;DHT22;34625;47.176;27.548;2022-09-02T12:53:23;28.80;41.30
48806;DHT22;34625;47.176;27.548;2022-09-02T12:58:23;28.70;41.60
48806;DHT22;34625;47.176;27.548;2022-09-02T13:03:57;28.80;42.20
48806;DHT22;34625;47.176;27.548;2022-09-02T13:17:51;28.80;42.30
48806;DHT22;34625;47.176;27.548;2022-09-02T13:23:59;28.70;42.80
48806;DHT22;34625;47.176;27.548;2022-09-02T13:32:14;28.70;43.30
48806;DHT22;34625;47.176;27.548;2022-09-02T13:34:45;28.70;43.30
48806;DHT22;34625;47.176;27.548;2022-09-02T13:39:58;28.80;43.30
48806;DHT22;34625;47.176;27.548;2022-09-02T13:42:27;28.70;43.40
48806;DHT22;34625;47.176;27.548;2022-09-02T13:45:09;28.70;42.90
48806;DHT22;34625;47.176;27.548;2022-09-02T13:47:36;28.60;43.20
48806;DHT22;34625;47.176;27.548;2022-09-02T13:50:04;28.60;43.60
48806;DHT22;34625;47.176;27.548;2022-09-02T13:52:31;28.70;43.50
48806;DHT22;34625;47.176;27.548;2022-09-02T13:54:57;28.60;43.60
48806;DHT22;34625;47.176;27.548;2022-09-02T13:57:26;28.60;44.00
48806;DHT22;34625;47.176;27.548;2022-09-02T13:59:54;28.50;44.30
48806;DHT22;34625;47.176;27.548;2022-09-02T14:02:32;28.70;44.20
48806;DHT22;34625;47.176;27.548;2022-09-02T14:05:11;28.70;44.30
48806;DHT22;34625;47.176;27.548;2022-09-02T14:07:44;28.70;44.30
48806;DHT22;34625;47.176;27.548;2022-09-02T14:10:15;28.60;44.20
48806;DHT22;34625;47.176;27.548;2022-09-02T14:12:42;28.60;44.40
48806;DHT22;34625;47.176;27.548;2022-09-02T14:15:14;28.60;44.50
48806;DHT22;34625;47.176;27.548;2022-09-02T14:17:41;28.60;44.40
48806;DHT22;34625;47.176;27.548;2022-09-02T14:22:41;28.70;44.60
48806;DHT22;34625;47.176;27.548;2022-09-02T14:25:11;28.60;44.60
48806;DHT22;34625;47.176;27.548;2022-09-02T14:27:38;28.70;44.40
48806;DHT22;34625;47.176;27.548;2022-09-02T14:30:05;28.70;44.50
48806;DHT22;34625;47.176;27.548;2022-09-02T14:32:34;28.60;44.00
48806;DHT22;34625;47.176;27.548;2022-09-02T14:35:21;28.60;44.90
48806;DHT22;34625;47.176;27.548;2022-09-02T14:37:53;28.60;44.90
48806;DHT22;34625;47.176;27.548;2022-09-02T14:40:36;28.60;44.90
48806;DHT22;34625;47.176;27.548;2022-09-02T14:43:03;28.70;44.90
48806;DHT22;34625;47.176;27.548;2022-09-02T14:45:34;28.60;45.00
48806;DHT22;34625;47.176;27.548;2022-09-02T14:48:09;28.70;45.10
48806;DHT22;34625;47.176;27.548;2022-09-02T14:50:35;28.60;45.00
48806;DHT22;34625;47.176;27.548;2022-09-02T14:53:05;28.70;45.20
48806;DHT22;34625;47.176;27.548;2022-09-02T14:55:53;28.60;45.30
48806;DHT22;34625;47.176;27.548;2022-09-02T14:58:21;28.70;45.40
48806;DHT22;34625;47.176;27.548;2022-09-02T15:00:49;28.60;44.90
48806;DHT22;34625;47.176;27.548;2022-09-02T15:03:24;28.60;45.30
48806;DHT22;34625;47.176;27.548;2022-09-02T15:05:51;28.50;45.00
48806;DHT22;34625;47.176;27.548;2022-09-02T15:08:19;28.70;49.40
48806;DHT22;34625;47.176;27.548;2022-09-02T15:10:45;29.00;50.00
48806;DHT22;34625;47.176;27.548;2022-09-02T15:16:04;29.30;50.90
48806;DHT22;34625;47.176;27.548;2022-09-02T15:18:30;29.20;47.10
48806;DHT22;34625;47.176;27.548;2022-09-02T15:20:56;29.00;46.50
48806;DHT22;34625;47.176;27.548;2022-09-02T15:23:22;29.10;46.70
48806;DHT22;34625;47.176;27.548;2022-09-02T15:25:48;29.00;46.80
48806;DHT22;34625;47.176;27.548;2022-09-02T15:28:15;29.10;46.80
48806;DHT22;34625;47.176;27.548;2022-09-02T15:30:41;29.00;46.60
48806;DHT22;34625;47.176;27.548;2022-09-02T15:33:08;29.10;46.40
48806;DHT22;34625;47.176;27.548;2022-09-02T15:35:34;28.90;45.70
48806;DHT22;34625;47.176;27.548;2022-09-02T15:38:01;29.10;46.10
48806;DHT22;34625;47.176;27.548;2022-09-02T15:40:28;29.00;46.10
48806;DHT22;34625;47.176;27.548;2022-09-02T15:42:56;29.00;46.00
48806;DHT22;34625;47.176;27.548;2022-09-02T15:45:23;29.00;45.90
48806;DHT22;34625;47.176;27.548;2022-09-02T15:47:49;29.00;45.90
48806;DHT22;34625;47.176;27.548;2022-09-02T15:50:16;29.00;45.80
48806;DHT22;34625;47.176;27.548;2022-09-02T15:52:42;29.00;45.50
48806;DHT22;34625;47.176;27.548;2022-09-02T15:55:11;29.00;45.70
48806;DHT22;34625;47.176;27.548;2022-09-02T15:57:37;29.00;44.60
48806;DHT22;34625;47.176;27.548;2022-09-02T16:00:03;29.00;44.60
48806;DHT22;34625;47.176;27.548;2022-09-02T16:02:37;28.90;43.40
48806;DHT22;34625;47.176;27.548;2022-09-02T16:05:03;28.90;43.20
48806;DHT22;34625;47.176;27.548;2022-09-02T16:07:29;29.00;43.70
48806;DHT22;34625;47.176;27.548;2022-09-02T16:09:55;29.10;46.30
48806;DHT22;34625;47.176;27.548;2022-09-02T16:12:22;29.40;45.80
48806;DHT22;34625;47.176;27.548;2022-09-02T16:14:49;29.50;42.00
48806;DHT22;34625;47.176;27.548;2022-09-02T16:17:16;29.40;40.80
48806;DHT22;34625;47.176;27.548;2022-09-02T16:19:42;29.40;40.80
48806;DHT22;34625;47.176;27.548;2022-09-02T16:22:08;29.30;40.90
48806;DHT22;34625;47.176;27.548;2022-09-02T16:24:34;29.30;41.30
48806;DHT22;34625;47.176;27.548;2022-09-02T16:27:00;29.20;41.60
48806;DHT22;34625;47.176;27.548;2022-09-02T16:29:26;29.30;42.00
48806;DHT22;34625;47.176;27.548;2022-09-02T16:31:52;29.20;41.90
48806;DHT22;34625;47.176;27.548;2022-09-02T16:34:19;29.20;42.20
48806;DHT22;34625;47.176;27.548;2022-09-02T16:36:47;29.10;42.40
48806;DHT22;34625;47.176;27.548;2022-09-02T16:39:15;29.10;42.30
48806;DHT22;34625;47.176;27.548;2022-09-02T16:41:44;29.20;42.60
48806;DHT22;34625;47.176;27.548;2022-09-02T16:44:12;29.20;42.30
48806;DHT22;34625;47.176;27.548;2022-09-02T16:46:41;29.10;42.30
48806;DHT22;34625;47.176;27.548;2022-09-02T16:49:09;29.10;41.60
48806;DHT22;34625;47.176;27.548;2022-09-02T16:51:35;29.00;42.90
48806;DHT22;34625;47.176;27.548;2022-09-02T16:54:04;29.00;43.00
48806;DHT22;34625;47.176;27.548;2022-09-02T16:56:30;29.00;42.70
48806;DHT22;34625;47.176;27.548;2022-09-02T16:59:01;29.10;44.50
48806;DHT22;34625;47.176;27.548;2022-09-02T17:01:28;29.20;45.80
48806;DHT22;34625;47.176;27.548;2022-09-02T17:03:55;29.30;48.20
48806;DHT22;34625;47.176;27.548;2022-09-02T17:06:21;29.40;44.60
48806;DHT22;34625;47.176;27.548;2022-09-02T17:08:47;29.40;43.50
48806;DHT22;34625;47.176;27.548;2022-09-02T17:11:23;29.20;42.70
48806;DHT22;34625;47.176;27.548;2022-09-02T17:16:47;29.20;41.90
48806;DHT22;34625;47.176;27.548;2022-09-02T17:19:15;29.10;41.40
48806;DHT22;34625;47.176;27.548;2022-09-02T17:21:47;29.20;41.40
48806;DHT22;34625;47.176;27.548;2022-09-02T17:24:16;29.20;41.40
48806;DHT22;34625;47.176;27.548;2022-09-02T17:26:46;29.10;41.40
48806;DHT22;34625;47.176;27.548;2022-09-02T17:29:14;29.10;39.70
48806;DHT22;34625;47.176;27.548;2022-09-02T17:31:41;29.10;41.30
48806;DHT22;34625;47.176;27.548;2022-09-02T17:34:08;29.00;41.30
48806;DHT22;34625;47.176;27.548;2022-09-02T17:36:36;29.10;41.20
48806;DHT22;34625;47.176;27.548;2022-09-02T17:39:11;29.00;41.10
48806;DHT22;34625;47.176;27.548;2022-09-02T17:41:37;29.10;41.10
48806;DHT22;34625;47.176;27.548;2022-09-02T17:44:27;28.90;40.60
48806;DHT22;34625;47.176;27.548;2022-09-02T17:46:58;29.00;41.20
48806;DHT22;34625;47.176;27.548;2022-09-02T17:49:25;28.90;40.80
48806;DHT22;34625;47.176;27.548;2022-09-02T17:51:51;28.90;41.10
48806;DHT22;34625;47.176;27.548;2022-09-02T17:54:17;28.80;41.40
48806;DHT22;34625;47.176;27.548;2022-09-02T18:10:03;28.80;41.90
48806;DHT22;34625;47.176;27.548;2022-09-02T18:12:29;28.80;42.30
48806;DHT22;34625;47.176;27.548;2022-09-02T18:15:00;28.70;42.60
48806;DHT22;34625;47.176;27.548;2022-09-02T18:17:41;28.60;42.60
48806;DHT22;34625;47.176;27.548;2022-09-02T18:20:16;28.70;42.70